Time;durP1;ratioP1;P1;durP2;ratioP2;P2;SDS_P1;SDS_P2;PMS_P1;PMS_P2;Temp;Humidity;BMP_temperature;BMP_pressure;BME280_temperature;BME280_humidity;BME280_pressure;Samples;Min_cycle;Max_cycle;Signal;HPM_P1;HPM_P2
2020/12/30 00:02:29;;;;;;;8.65;4.90;;;0.20;99.90;;;;;;4736698;30;20070;-80
2020/12/30 00:05:04;;;;;;;6.88;4.25;;;0.20;99.90;;;;;;4751045;30;20556;-80
2020/12/30 00:07:36;;;;;;;6.07;4.40;;;0.10;99.90;;;;;;4745363;30;20058;-80
2020/12/30 00:10:20;;;;;;;5.57;4.07;;;0.10;99.90;;;;;;4768265;30;20048;-79
2020/12/30 00:12:51;;;;;;;4.35;3.35;;;0.20;99.90;;;;;;4767553;30;20063;-80
2020/12/30 00:15:23;;;;;;;5.55;2.83;;;0.10;99.90;;;;;;4768202;30;20059;-80
2020/12/30 00:17:54;;;;;;;4.40;2.53;;;0.10;99.90;;;;;;4754691;30;20058;-79
2020/12/30 00:20:25;;;;;;;4.50;2.70;;;0.00;99.90;;;;;;4747567;30;20429;-79
2020/12/30 00:22:57;;;;;;;4.95;3.10;;;0.00;99.90;;;;;;4764477;30;20600;-79
2020/12/30 00:25:23;;;;;;;4.50;3.08;;;0.00;99.90;;;;;;4746628;30;20083;-79
2020/12/30 00:27:54;;;;;;;5.18;3.00;;;-0.10;99.90;;;;;;4751400;30;20139;-79
2020/12/30 00:30:26;;;;;;;4.03;2.65;;;-0.10;99.90;;;;;;4766132;30;20048;-79
2020/12/30 00:32:57;;;;;;;4.25;3.10;;;-0.10;99.90;;;;;;4750992;30;20059;-79
2020/12/30 00:35:28;;;;;;;4.28;2.60;;;-0.20;99.90;;;;;;4751021;30;20087;-79
2020/12/30 00:37:59;;;;;;;5.18;2.85;;;-0.20;99.90;;;;;;4780457;30;20142;-80
2020/12/30 00:40:31;;;;;;;4.10;2.83;;;-0.20;99.90;;;;;;4765073;30;20068;-79
2020/12/30 00:42:57;;;;;;;7.05;3.42;;;-0.20;99.90;;;;;;4750893;30;20071;-79
2020/12/30 00:45:28;;;;;;;3.22;2.67;;;-0.20;99.90;;;;;;4780775;30;20040;-79
2020/12/30 00:47:54;;;;;;;5.95;2.97;;;-0.20;99.90;;;;;;4750906;30;20056;-79
2020/12/30 00:50:26;;;;;;;4.03;2.90;;;-0.20;99.90;;;;;;4764700;30;20188;-79
2020/12/30 00:52:57;;;;;;;3.67;2.83;;;-0.20;99.90;;;;;;4750570;30;20516;-79
2020/12/30 00:55:24;;;;;;;4.40;3.28;;;-0.20;99.90;;;;;;4765442;30;20052;-80
2020/12/30 00:58:04;;;;;;;4.68;3.08;;;-0.30;99.90;;;;;;4750852;30;20151;-80
2020/12/30 01:00:35;;;;;;;4.65;2.90;;;-0.30;99.90;;;;;;4764929;29;20055;-79
2020/12/30 01:03:20;;;;;;;5.95;2.95;;;-0.30;99.90;;;;;;4751200;30;20055;-79
2020/12/30 01:05:51;;;;;;;3.70;3.10;;;-0.30;99.90;;;;;;4750611;30;20048;-79
2020/12/30 01:08:23;;;;;;;5.55;3.35;;;-0.40;99.90;;;;;;4751053;30;20048;-80
2020/12/30 01:10:54;;;;;;;4.15;3.00;;;-0.40;99.90;;;;;;4750969;30;20076;-81
2020/12/30 01:13:25;;;;;;;5.18;3.50;;;-0.40;99.90;;;;;;4750972;30;20060;-79
2020/12/30 01:15:52;;;;;;;5.22;2.65;;;-0.50;99.90;;;;;;4750961;30;20517;-79
2020/12/30 01:18:23;;;;;;;4.07;2.72;;;-0.50;99.90;;;;;;4750740;30;20087;-79
2020/12/30 01:21:01;;;;;;;4.90;3.00;;;-0.50;99.90;;;;;;4764963;30;20131;-80
2020/12/30 01:23:33;;;;;;;3.13;2.70;;;-0.40;99.90;;;;;;4750951;30;20048;-79
2020/12/30 01:25:59;;;;;;;6.22;3.00;;;-0.50;99.90;;;;;;4750925;30;20129;-79
2020/12/30 01:28:32;;;;;;;4.50;3.17;;;-0.50;99.90;;;;;;4751148;30;20067;-79
2020/12/30 01:31:03;;;;;;;5.50;3.95;;;-0.50;99.90;;;;;;4783958;29;20428;-79
2020/12/30 01:33:30;;;;;;;3.70;3.10;;;-0.50;99.90;;;;;;4754183;30;20064;-79
2020/12/30 01:35:56;;;;;;;5.38;3.20;;;-0.60;99.90;;;;;;4754291;30;20059;-79
2020/12/30 01:38:28;;;;;;;5.00;3.15;;;-0.60;99.90;;;;;;4784282;30;20536;-79
2020/12/30 01:40:59;;;;;;;4.65;3.33;;;-0.60;99.90;;;;;;4754089;30;20048;-79
2020/12/30 01:43:26;;;;;;;3.75;2.97;;;-0.60;99.90;;;;;;4754202;30;20143;-79
2020/12/30 01:45:52;;;;;;;4.60;3.15;;;-0.60;99.90;;;;;;4754125;30;20417;-79
2020/12/30 01:48:24;;;;;;;4.05;3.20;;;-0.50;99.90;;;;;;4754322;30;20048;-79
2020/12/30 01:50:56;;;;;;;4.13;2.65;;;-0.50;99.90;;;;;;4768254;30;20070;-79
2020/12/30 01:53:27;;;;;;;6.15;3.10;;;-0.50;99.90;;;;;;4753948;30;20056;-79
2020/12/30 01:55:55;;;;;;;4.70;3.08;;;-0.40;99.90;;;;;;4768871;30;20420;-80
2020/12/30 01:58:26;;;;;;;4.95;3.15;;;-0.20;99.90;;;;;;4753875;30;20155;-80
2020/12/30 02:00:54;;;;;;;6.22;2.95;;;-0.20;99.90;;;;;;4768105;29;20052;-79
2020/12/30 02:03:22;;;;;;;3.70;2.63;;;-0.10;99.90;;;;;;4753374;30;20118;-79
2020/12/30 02:05:57;;;;;;;3.25;2.22;;;0.10;99.90;;;;;;4753578;30;20132;-79
2020/12/30 02:08:29;;;;;;;3.30;2.60;;;0.10;99.90;;;;;;4753450;30;20120;-80
2020/12/30 02:10:55;;;;;;;4.32;2.65;;;0.30;99.90;;;;;;4768148;30;20049;-79
2020/12/30 02:13:27;;;;;;;3.97;2.35;;;0.30;99.90;;;;;;4753362;30;20083;-79
2020/12/30 02:16:00;;;;;;;3.63;2.58;;;0.40;99.90;;;;;;4767623;30;20070;-80
2020/12/30 02:18:27;;;;;;;2.53;2.30;;;0.30;99.90;;;;;;4753328;30;20052;-79
2020/12/30 02:20:58;;;;;;;3.28;2.40;;;0.30;99.90;;;;;;4767344;30;20048;-80
2020/12/30 02:23:25;;;;;;;4.10;2.67;;;0.30;99.90;;;;;;4752940;30;20048;-80
2020/12/30 02:25:56;;;;;;;3.05;2.30;;;0.30;99.90;;;;;;4767437;29;20147;-80
2020/12/30 02:28:28;;;;;;;2.88;2.20;;;0.30;99.90;;;;;;4753289;30;20052;-80
2020/12/30 02:30:59;;;;;;;3.38;2.20;;;0.20;99.90;;;;;;4767047;29;20504;-80
2020/12/30 02:33:30;;;;;;;2.53;2.00;;;0.20;99.90;;;;;;4753168;30;20064;-79
2020/12/30 02:35:56;;;;;;;3.58;2.45;;;0.20;99.90;;;;;;4767953;30;20306;-79
2020/12/30 02:38:28;;;;;;;2.58;2.03;;;0.20;99.90;;;;;;4753134;30;20097;-79
2020/12/30 02:41:00;;;;;;;3.50;2.65;;;0.10;99.90;;;;;;4766769;29;20076;-79
2020/12/30 02:43:31;;;;;;;4.40;2.42;;;0.10;99.90;;;;;;4752663;30;20084;-77
2020/12/30 02:45:57;;;;;;;4.38;2.72;;;0.10;99.90;;;;;;4752548;30;20147;-77
2020/12/30 02:48:28;;;;;;;4.32;2.83;;;0.10;99.90;;;;;;4752833;30;20107;-78
2020/12/30 02:50:55;;;;;;;5.38;3.00;;;0.10;99.90;;;;;;4767207;30;20160;-78
2020/12/30 02:53:26;;;;;;;4.00;2.70;;;0.10;99.90;;;;;;4752658;30;20499;-79
2020/12/30 02:55:57;;;;;;;4.25;2.92;;;0.10;99.90;;;;;;4766936;29;20070;-79
2020/12/30 02:58:28;;;;;;;4.90;3.03;;;0.00;99.90;;;;;;4752665;30;20063;-79
2020/12/30 03:00:59;;;;;;;4.03;2.67;;;0.00;99.90;;;;;;4766735;30;20058;-80
2020/12/30 03:03:26;;;;;;;4.28;2.90;;;0.00;99.90;;;;;;4752654;30;20052;-79
2020/12/30 03:05:57;;;;;;;3.88;2.67;;;-0.10;99.90;;;;;;4752592;30;20048;-79
2020/12/30 03:08:28;;;;;;;4.78;3.00;;;-0.10;99.90;;;;;;4752824;30;20048;-79
2020/12/30 03:11:00;;;;;;;4.32;2.88;;;-0.10;99.90;;;;;;4781065;30;20437;-79
2020/12/30 03:13:31;;;;;;;4.22;2.78;;;-0.10;99.90;;;;;;4752186;30;20059;-79
2020/12/30 03:16:03;;;;;;;5.57;3.05;;;-0.20;99.90;;;;;;4782467;30;20090;-80
2020/12/30 03:18:29;;;;;;;4.63;3.22;;;-0.20;99.90;;;;;;4752352;30;20070;-79
2020/12/30 03:20:55;;;;;;;3.72;3.08;;;-0.10;99.90;;;;;;4752497;30;20135;-79
2020/12/30 03:23:26;;;;;;;5.18;2.47;;;-0.10;99.90;;;;;;4752453;30;20156;-79
2020/12/30 03:25:57;;;;;;;5.05;3.25;;;-0.10;99.90;;;;;;4766256;29;20523;-79
2020/12/30 03:28:29;;;;;;;7.40;4.47;;;-0.10;99.90;;;;;;4752400;30;20058;-79
2020/12/30 03:30:55;;;;;;;5.65;4.00;;;-0.20;99.90;;;;;;4752142;30;20088;-80
2020/12/30 03:33:26;;;;;;;5.50;4.13;;;-0.30;99.90;;;;;;4752385;30;20048;-79
2020/12/30 03:35:53;;;;;;;4.28;3.40;;;-0.30;99.90;;;;;;4752635;30;20083;-79
2020/12/30 03:38:19;;;;;;;7.45;4.47;;;-0.40;99.90;;;;;;4752098;30;20121;-79
2020/12/30 03:40:50;;;;;;;6.57;4.07;;;-0.50;99.90;;;;;;4781606;29;20052;-79
2020/12/30 03:43:21;;;;;;;5.63;3.80;;;-0.50;99.90;;;;;;4751666;30;20051;-79
2020/12/30 03:45:53;;;;;;;7.50;4.55;;;-0.60;99.90;;;;;;4766058;30;20631;-80
2020/12/30 03:48:24;;;;;;;5.30;4.20;;;-0.60;99.90;;;;;;4752235;30;20128;-79
2020/12/30 03:50:50;;;;;;;6.35;4.40;;;-0.70;99.90;;;;;;4766934;30;20158;-79
2020/12/30 03:53:21;;;;;;;5.07;4.07;;;-0.70;99.90;;;;;;4751839;30;20052;-79
2020/12/30 03:55:53;;;;;;;6.22;4.07;;;-0.70;99.90;;;;;;4766601;30;20537;-79
2020/12/30 03:58:24;;;;;;;6.10;3.65;;;-0.70;99.90;;;;;;4752256;30;20412;-79
2020/12/30 04:00:55;;;;;;;4.30;3.80;;;-0.80;99.90;;;;;;4780676;30;20135;-80
2020/12/30 04:03:27;;;;;;;7.43;3.50;;;-0.80;99.90;;;;;;4752280;30;20568;-80
2020/12/30 04:05:58;;;;;;;4.05;3.35;;;-0.80;99.90;;;;;;4766059;30;20158;-79
2020/12/30 04:08:24;;;;;;;4.43;3.33;;;-0.80;99.90;;;;;;4752017;30;20143;-79
2020/12/30 04:10:55;;;;;;;5.00;3.67;;;-0.80;99.90;;;;;;4766027;30;20473;-80
2020/12/30 04:13:21;;;;;;;6.00;3.95;;;-0.80;99.90;;;;;;4751701;30;20056;-80
2020/12/30 04:15:48;;;;;;;3.45;2.63;;;-0.80;99.90;;;;;;4781574;30;20131;-79
2020/12/30 04:18:19;;;;;;;3.63;2.35;;;-0.80;99.90;;;;;;4752224;30;20048;-79
2020/12/30 04:20:45;;;;;;;5.10;2.78;;;-0.70;99.90;;;;;;4781464;30;20539;-79
2020/12/30 04:23:16;;;;;;;5.97;3.80;;;-0.70;99.90;;;;;;4751692;30;20424;-79
2020/12/30 04:25:48;;;;;;;4.85;2.90;;;-0.70;99.90;;;;;;4781538;30;20101;-79
2020/12/30 04:28:19;;;;;;;6.10;3.45;;;-0.70;99.90;;;;;;4781477;29;20072;-79
2020/12/30 04:30:51;;;;;;;6.85;4.30;;;-0.80;99.90;;;;;;4751898;30;20048;-79
2020/12/30 04:33:22;;;;;;;6.13;4.18;;;-0.80;99.90;;;;;;4751649;30;20064;-80
2020/12/30 04:35:53;;;;;;;5.75;3.78;;;-0.90;99.90;;;;;;4781416;29;20052;-79
2020/12/30 04:38:24;;;;;;;7.78;4.07;;;-0.90;99.90;;;;;;4752139;30;20073;-79
2020/12/30 04:41:00;;;;;;;7.25;3.92;;;-1.00;99.90;;;;;;4765728;30;20105;-80
2020/12/30 04:43:34;;;;;;;5.38;3.78;;;-1.00;99.90;;;;;;4752135;30;20501;-79
2020/12/30 04:46:01;;;;;;;5.50;3.28;;;-1.00;99.90;;;;;;4766296;30;20056;-79
2020/12/30 04:48:30;;;;;;;4.65;3.63;;;-1.10;99.90;;;;;;4737043;30;20288;-79
2020/12/30 04:50:56;;;;;;;4.90;3.53;;;-1.10;99.90;;;;;;4766301;29;20604;-79
2020/12/30 04:53:29;;;;;;;5.13;3.67;;;-1.10;99.90;;;;;;4751543;30;20168;-79
2020/12/30 04:55:59;;;;;;;5.03;3.38;;;-1.10;99.90;;;;;;4766538;30;20147;-79
2020/12/30 04:58:31;;;;;;;4.13;3.38;;;-1.10;99.90;;;;;;4751518;30;20072;-79
2020/12/30 05:01:02;;;;;;;4.72;2.72;;;-1.10;99.90;;;;;;4765567;30;20509;-79
2020/12/30 05:03:44;;;;;;;5.15;3.53;;;-1.10;99.90;;;;;;4750413;30;20086;-79
2020/12/30 05:06:16;;;;;;;5.90;2.70;;;-1.10;99.90;;;;;;4781237;29;20047;-79
2020/12/30 05:08:50;;;;;;;4.93;2.90;;;-1.10;99.90;;;;;;4751225;30;20054;-79
2020/12/30 05:11:16;;;;;;;4.32;3.10;;;-1.10;99.90;;;;;;4751137;30;20060;-79
2020/12/30 05:13:47;;;;;;;4.07;2.50;;;-1.00;99.90;;;;;;4751091;30;20052;-79
2020/12/30 05:16:21;;;;;;;4.13;2.85;;;-1.00;99.90;;;;;;4765091;29;20060;-79
2020/12/30 05:19:05;;;;;;;5.55;2.60;;;-0.90;99.90;;;;;;4751687;30;20143;-79
2020/12/30 05:21:31;;;;;;;4.05;2.65;;;-0.90;99.90;;;;;;4751218;30;20463;-80
2020/12/30 05:23:58;;;;;;;3.00;2.50;;;-0.70;99.90;;;;;;4751056;30;20052;-79
2020/12/30 05:26:32;;;;;;;3.80;2.67;;;-0.70;99.90;;;;;;4765154;30;20463;-79
2020/12/30 05:29:05;;;;;;;4.50;2.53;;;-0.60;99.90;;;;;;4751103;30;20079;-80
2020/12/30 05:31:36;;;;;;;4.18;2.75;;;-0.60;99.90;;;;;;4780715;29;20060;-80
2020/12/30 05:34:08;;;;;;;4.20;2.85;;;-0.60;99.90;;;;;;4751132;30;20087;-80
2020/12/30 05:36:39;;;;;;;3.15;2.45;;;-0.60;99.90;;;;;;4765002;30;20412;-79
2020/12/30 05:39:27;;;;;;;4.85;2.63;;;-0.50;99.90;;;;;;4766239;30;20083;-79
2020/12/30 05:42:15;;;;;;;3.53;2.50;;;-0.50;99.90;;;;;;4765054;29;20527;-80
2020/12/30 05:44:43;;;;;;;3.60;2.53;;;-0.60;99.90;;;;;;4750786;30;20044;-79
2020/12/30 05:47:20;;;;;;;4.63;2.88;;;-0.60;99.90;;;;;;4780329;30;20330;-79
2020/12/30 05:49:54;;;;;;;3.60;2.78;;;-0.60;99.90;;;;;;4764909;30;20048;-79
2020/12/30 05:52:28;;;;;;;4.10;2.90;;;-0.60;99.90;;;;;;4765877;30;20109;-79
2020/12/30 05:55:01;;;;;;;4.25;2.53;;;-0.60;99.90;;;;;;4750891;30;20071;-79
2020/12/30 05:57:34;;;;;;;7.20;2.50;;;-0.60;99.90;;;;;;4764889;30;20052;-79
2020/12/30 06:00:13;;;;;;;3.88;2.40;;;-0.60;99.90;;;;;;4736697;30;20079;-80
2020/12/30 06:02:42;;;;;;;4.40;2.75;;;-0.70;99.90;;;;;;4750727;30;20417;-79
2020/12/30 06:05:22;;;;;;;3.42;2.25;;;-0.70;99.90;;;;;;4750850;30;20065;-79
2020/12/30 06:07:49;;;;;;;3.75;2.65;;;-0.70;99.90;;;;;;4750041;30;20143;-79
2020/12/30 06:10:21;;;;;;;3.83;2.58;;;-0.80;99.90;;;;;;4750373;30;20479;-80
2020/12/30 06:12:58;;;;;;;6.18;2.83;;;-0.70;99.90;;;;;;4764384;30;20151;-79
2020/12/30 06:15:33;;;;;;;5.90;2.70;;;-0.80;99.90;;;;;;4751933;30;20056;-79
2020/12/30 06:18:09;;;;;;;5.53;2.53;;;-0.70;99.90;;;;;;4783184;30;20086;-79
2020/12/30 06:20:41;;;;;;;4.30;2.58;;;-0.70;99.90;;;;;;4753397;30;20052;-79
2020/12/30 06:23:08;;;;;;;4.70;2.90;;;-0.60;99.90;;;;;;4768538;30;20151;-79
2020/12/30 06:25:36;;;;;;;4.25;2.47;;;-0.60;99.90;;;;;;4768132;30;20147;-80
2020/12/30 06:28:07;;;;;;;3.35;2.45;;;-0.60;99.90;;;;;;4767320;30;20051;-79
2020/12/30 06:30:41;;;;;;;3.38;2.60;;;-0.60;99.90;;;;;;4767352;30;20048;-79
2020/12/30 06:33:13;;;;;;;;;;;-0.50;99.90;;;;;;4767322;29;20047;-79
2020/12/30 06:35:41;;;;;;;4.38;2.95;;;-0.50;99.90;;;;;;4754781;30;19986;-79
2020/12/30 06:38:30;;;;;;;4.22;2.47;;;-0.40;99.90;;;;;;4752213;30;20066;-79
2020/12/30 06:41:07;;;;;;;4.82;2.60;;;-0.40;99.90;;;;;;4768555;30;20044;-80
2020/12/30 06:43:39;;;;;;;8.07;3.45;;;-0.40;99.90;;;;;;4782770;29;20044;-79
2020/12/30 06:46:11;;;;;;;5.28;3.65;;;-0.30;99.90;;;;;;4752750;30;20146;-79
2020/12/30 06:48:53;;;;;;;5.57;3.47;;;-0.30;99.90;;;;;;4766284;30;20147;-79
2020/12/30 06:51:26;;;;;;;5.60;2.85;;;-0.40;99.90;;;;;;4768178;30;20079;-79
2020/12/30 06:53:59;;;;;;;4.40;3.00;;;-0.40;99.90;;;;;;4768110;30;20052;-79
2020/12/30 06:56:51;;;;;;;4.97;2.50;;;-0.50;99.90;;;;;;4767547;30;20254;-79
2020/12/30 06:59:31;;;;;;;4.05;2.42;;;-0.50;99.90;;;;;;4752716;30;20067;-79
2020/12/30 07:02:04;;;;;;;3.00;2.38;;;-0.50;99.90;;;;;;4766635;30;20135;-79
2020/12/30 07:04:35;;;;;;;3.88;2.80;;;-0.50;99.90;;;;;;4767295;30;20156;-80
2020/12/30 07:07:25;;;;;;;3.80;2.42;;;-0.40;99.90;;;;;;4766264;30;20477;-79
2020/12/30 07:09:51;;;;;;;5.80;4.28;;;-0.30;99.90;;;;;;4751707;30;20139;-79
2020/12/30 07:12:38;;;;;;;69.35;34.88;;;-0.30;99.90;;;;;;4766101;30;20135;-79
2020/12/30 07:15:04;;;;;;;31.75;14.45;;;-0.30;99.90;;;;;;4751836;30;20076;-79
2020/12/30 07:17:33;;;;;;;12.75;7.55;;;-0.30;99.90;;;;;;4766480;29;20406;-79
2020/12/30 07:20:01;;;;;;;4.40;3.13;;;-0.30;99.90;;;;;;4751109;30;20147;-79
2020/12/30 07:22:33;;;;;;;4.47;2.80;;;-0.20;99.90;;;;;;4766981;30;20056;-79
2020/12/30 07:25:04;;;;;;;7.40;5.20;;;-0.20;99.90;;;;;;4765962;30;20140;-80
2020/12/30 07:27:35;;;;;;;10.70;7.22;;;-0.10;99.90;;;;;;4766073;30;20491;-79
2020/12/30 07:30:05;;;;;;;8.82;6.40;;;-0.20;99.90;;;;;;4766040;29;20520;-79
2020/12/30 07:32:37;;;;;;;9.27;6.28;;;-0.20;99.90;;;;;;4766753;30;20048;-79
2020/12/30 07:35:06;;;;;;;9.73;6.05;;;-0.20;99.90;;;;;;4736763;30;20064;-79
2020/12/30 07:37:33;;;;;;;11.68;7.32;;;-0.30;99.90;;;;;;4751218;30;20150;-79
2020/12/30 07:40:04;;;;;;;15.10;9.02;;;-0.30;99.90;;;;;;4780557;29;20500;-79
2020/12/30 07:42:30;;;;;;;16.10;10.57;;;-0.30;99.90;;;;;;4751149;30;20158;-79
2020/12/30 07:44:58;;;;;;;9.35;6.25;;;-0.40;99.90;;;;;;4751154;30;20142;-79
2020/12/30 07:47:26;;;;;;;7.40;5.57;;;-0.40;99.90;;;;;;4760962;30;20101;-79
2020/12/30 07:50:02;;;;;;;6.95;4.72;;;-0.50;99.90;;;;;;4752752;30;20049;-79
2020/12/30 07:52:33;;;;;;;8.10;4.68;;;-0.50;99.90;;;;;;4768443;30;20048;-79
2020/12/30 07:55:00;;;;;;;8.57;5.07;;;-0.50;99.90;;;;;;4753823;30;20131;-79
2020/12/30 07:57:32;;;;;;;8.88;5.32;;;-0.50;99.90;;;;;;4765308;30;20135;-79
2020/12/30 07:59:58;;;;;;;9.68;5.50;;;-0.50;99.90;;;;;;4770088;30;20131;-79
2020/12/30 08:02:37;;;;;;;6.00;3.78;;;-0.50;99.90;;;;;;4760249;30;20056;-79
2020/12/30 08:05:04;;;;;;;3.78;2.80;;;-0.40;99.90;;;;;;4784903;29;20147;-79
2020/12/30 08:07:35;;;;;;;2.90;1.92;;;-0.20;99.90;;;;;;4768540;30;20067;-80
2020/12/30 08:10:01;;;;;;;4.13;2.58;;;0.10;99.90;;;;;;4753968;30;20060;-79
2020/12/30 08:12:27;;;;;;;3.13;2.40;;;0.40;99.90;;;;;;4754394;30;20154;-79
2020/12/30 08:14:59;;;;;;;3.22;1.80;;;0.60;99.90;;;;;;4754551;30;20470;-79
2020/12/30 08:17:30;;;;;;;4.95;2.60;;;0.80;99.90;;;;;;4770040;30;20064;-79
2020/12/30 08:19:57;;;;;;;3.47;2.80;;;0.90;99.90;;;;;;4769391;30;20052;-79
2020/12/30 08:22:26;;;;;;;8.18;5.47;;;1.00;99.90;;;;;;4754445;30;20128;-79
2020/12/30 08:24:58;;;;;;;7.22;4.13;;;1.00;99.90;;;;;;4755276;30;20538;-79
2020/12/30 08:27:30;;;;;;;16.55;8.80;;;1.10;99.90;;;;;;4755240;30;20051;-79
2020/12/30 08:30:02;;;;;;;28.23;12.88;;;1.10;99.90;;;;;;4755188;30;20051;-79
2020/12/30 08:35:30;;;;;;;7.55;5.38;;;1.10;99.90;;;;;;5124244;24;20477;-80
2020/12/30 08:38:15;;;;;;;8.85;5.35;;;1.00;99.90;;;;;;4787447;29;20472;-79
2020/12/30 08:40:43;;;;;;;8.90;6.30;;;0.90;99.90;;;;;;4787622;29;20055;-79
2020/12/30 08:43:22;;;;;;;8.85;5.25;;;0.80;99.90;;;;;;4770196;30;20401;-78
2020/12/30 08:46:08;;;;;;;10.98;7.10;;;0.80;99.90;;;;;;4784763;29;20055;-79
2020/12/30 08:48:44;;;;;;;7.63;5.55;;;0.70;99.90;;;;;;4769641;30;20063;-79
2020/12/30 08:51:10;;;;;;;4.65;2.95;;;0.70;99.90;;;;;;4784755;30;20055;-80
2020/12/30 08:53:42;;;;;;;3.97;2.70;;;0.80;99.90;;;;;;4770458;30;20079;-78
2020/12/30 08:56:19;;;;;;;4.88;2.58;;;0.90;99.90;;;;;;4783782;30;20105;-79
2020/12/30 08:58:58;;;;;;;6.53;3.92;;;1.00;99.90;;;;;;4769863;30;20309;-79
2020/12/30 09:01:30;;;;;;;5.55;3.58;;;1.10;99.90;;;;;;4785035;30;20078;-79
2020/12/30 09:04:10;;;;;;;5.72;3.85;;;1.10;99.90;;;;;;4770257;29;20120;-79
2020/12/30 09:06:37;;;;;;;6.20;3.58;;;1.20;99.90;;;;;;4785463;30;20090;-79
2020/12/30 09:09:14;;;;;;;5.50;4.05;;;1.20;99.90;;;;;;4770514;29;20051;-79
2020/12/30 09:11:50;;;;;;;6.07;2.58;;;1.20;99.90;;;;;;4785121;29;20088;-79
2020/12/30 09:14:20;;;;;;;5.18;4.15;;;1.20;99.90;;;;;;4770244;30;20076;-79
2020/12/30 09:17:10;;;;;;;4.28;3.03;;;1.30;99.90;;;;;;4784050;29;20444;-79
2020/12/30 09:19:37;;;;;;;3.47;3.00;;;1.30;99.90;;;;;;4795528;29;20055;-79
2020/12/30 09:22:08;;;;;;;5.43;2.97;;;1.30;99.90;;;;;;4787146;30;20051;-79
2020/12/30 09:24:39;;;;;;;5.60;4.13;;;1.30;99.90;;;;;;4783935;29;20050;-79
2020/12/30 09:27:21;;;;;;;7.15;5.07;;;1.40;99.90;;;;;;4787506;29;20142;-79
2020/12/30 09:30:14;;;;;;;12.73;8.45;;;1.40;99.90;;;;;;4786951;30;20059;-80
2020/12/30 09:32:47;;;;;;;16.33;10.82;;;1.40;99.90;;;;;;4787927;29;20100;-79
2020/12/30 09:35:16;;;;;;;13.23;8.55;;;1.40;99.90;;;;;;4772742;29;20059;-79
2020/12/30 09:37:53;;;;;;;10.88;6.78;;;1.40;99.90;;;;;;4783216;29;20058;-79
2020/12/30 09:40:28;;;;;;;11.02;7.28;;;1.40;99.90;;;;;;4753622;30;20079;-80
2020/12/30 09:43:14;;;;;;;11.25;8.38;;;1.50;99.90;;;;;;4787467;29;20078;-79
2020/12/30 09:45:47;;;;;;;9.40;7.07;;;1.50;99.90;;;;;;4776354;30;20074;-79
2020/12/30 09:48:20;;;;;;;13.05;6.32;;;1.50;99.90;;;;;;4777428;30;20048;-79
2020/12/30 09:50:49;;;;;;;12.32;6.72;;;1.50;99.90;;;;;;4758836;30;20055;-79
2020/12/30 09:53:24;;;;;;;9.65;6.47;;;1.50;99.90;;;;;;4790342;30;20070;-81
2020/12/30 09:55:51;;;;;;;9.27;6.13;;;1.50;99.90;;;;;;4759073;30;20426;-79
2020/12/30 09:58:22;;;;;;;7.75;5.38;;;1.50;99.90;;;;;;4788023;30;20048;-79
2020/12/30 10:00:54;;;;;;;9.25;5.30;;;1.50;99.90;;;;;;4776703;30;20047;-79
2020/12/30 10:03:21;;;;;;;8.30;5.85;;;1.50;99.90;;;;;;4792424;29;20044;-79
2020/12/30 10:05:48;;;;;;;8.55;5.18;;;1.50;99.90;;;;;;4773856;30;20581;-80
2020/12/30 10:08:15;;;;;;;7.43;5.60;;;1.50;99.90;;;;;;4772747;30;20057;-80
2020/12/30 10:10:48;;;;;;;7.45;5.35;;;1.50;99.90;;;;;;4743101;30;20048;-79
2020/12/30 10:13:20;;;;;;;11.00;6.50;;;1.50;99.90;;;;;;4770969;30;20605;-79
2020/12/30 10:15:47;;;;;;;9.50;4.65;;;1.60;99.90;;;;;;4757474;30;20052;-79
2020/12/30 10:18:14;;;;;;;8.45;4.57;;;1.60;99.90;;;;;;4771929;30;20056;-79
2020/12/30 10:20:40;;;;;;;8.65;6.40;;;1.60;99.90;;;;;;4770852;30;20049;-79
2020/12/30 10:23:09;;;;;;;7.43;5.30;;;1.60;99.90;;;;;;4754091;30;20401;-80
2020/12/30 10:25:35;;;;;;;14.38;7.90;;;1.60;99.90;;;;;;4756765;30;20052;-79
2020/12/30 10:28:02;;;;;;;13.23;7.47;;;1.60;99.90;;;;;;4772295;30;20094;-79
2020/12/30 10:30:29;;;;;;;8.88;5.57;;;1.70;99.90;;;;;;4774671;30;20079;-79
2020/12/30 10:32:56;;;;;;;6.47;4.40;;;1.80;99.90;;;;;;4784273;29;20121;-79
2020/12/30 10:35:23;;;;;;;8.77;4.78;;;2.00;99.90;;;;;;4778433;30;20055;-79
2020/12/30 10:37:55;;;;;;;6.50;4.28;;;2.00;99.90;;;;;;4803898;29;20112;-79
2020/12/30 10:40:27;;;;;;;4.88;3.60;;;2.20;99.90;;;;;;4806061;29;20126;-79
2020/12/30 10:43:03;;;;;;;6.57;3.10;;;2.40;99.90;;;;;;4791770;30;20053;-79
2020/12/30 10:45:35;;;;;;;6.00;3.88;;;2.50;99.90;;;;;;4794215;29;20085;-79
2020/12/30 10:48:06;;;;;;;6.05;4.18;;;2.60;99.90;;;;;;4772916;30;20058;-79
2020/12/30 10:50:38;;;;;;;5.55;3.60;;;2.70;99.90;;;;;;4773360;29;20079;-79
2020/12/30 10:53:04;;;;;;;5.70;3.50;;;2.80;99.90;;;;;;4791045;29;20074;-79
2020/12/30 10:55:35;;;;;;;5.45;2.90;;;2.90;99.90;;;;;;4783404;30;20044;-79
2020/12/30 10:58:07;;;;;;;4.22;2.78;;;2.90;99.90;;;;;;4785251;29;20078;-78
2020/12/30 11:00:38;;;;;;;4.95;3.10;;;3.00;99.90;;;;;;4783919;29;20051;-78
2020/12/30 11:03:04;;;;;;;3.88;2.80;;;3.10;99.90;;;;;;4782986;30;20052;-78
2020/12/30 11:05:36;;;;;;;5.97;3.40;;;3.20;99.90;;;;;;4773393;30;20130;-79
2020/12/30 11:08:07;;;;;;;4.95;3.20;;;3.20;99.90;;;;;;4772890;30;20415;-78
2020/12/30 11:10:38;;;;;;;4.25;3.47;;;3.30;99.90;;;;;;4797031;29;20393;-78
2020/12/30 11:13:10;;;;;;;4.32;2.95;;;3.40;99.90;;;;;;4770088;30;20055;-79
2020/12/30 11:15:41;;;;;;;4.10;2.85;;;3.40;99.90;;;;;;4769994;30;20085;-78
2020/12/30 11:18:13;;;;;;;6.43;2.85;;;3.50;99.90;;;;;;4769862;30;20063;-78
2020/12/30 11:20:45;;;;;;;4.32;2.63;;;3.60;99.90;;;;;;4785219;29;20052;-79
2020/12/30 11:23:17;;;;;;;4.40;2.35;;;3.70;99.90;;;;;;4770871;29;20248;-78
2020/12/30 11:25:45;;;;;;;5.18;2.80;;;3.70;99.90;;;;;;4785001;29;20504;-78
2020/12/30 11:28:17;;;;;;;4.18;3.00;;;3.80;99.90;;;;;;4782990;30;20508;-78
2020/12/30 11:30:49;;;;;;;2.90;2.25;;;3.80;99.90;;;;;;4785043;29;20474;-78
2020/12/30 11:33:20;;;;;;;3.47;2.38;;;3.90;99.90;;;;;;4782618;29;20063;-78
2020/12/30 11:35:51;;;;;;;4.80;2.60;;;3.90;99.90;;;;;;4797122;29;20057;-78
2020/12/30 11:38:23;;;;;;;3.95;2.67;;;3.90;99.90;;;;;;4786810;30;20059;-78
2020/12/30 11:40:56;;;;;;;5.80;2.85;;;4.00;99.90;;;;;;4786317;29;20057;-80
2020/12/30 11:43:22;;;;;;;4.47;3.50;;;4.10;99.90;;;;;;4789880;29;20446;-80
2020/12/30 11:45:54;;;;;;;2.90;2.50;;;4.10;99.90;;;;;;4786770;29;20416;-78
2020/12/30 11:48:20;;;;;;;4.18;2.08;;;4.20;99.90;;;;;;4767881;29;20059;-78
2020/12/30 11:50:52;;;;;;;3.25;1.92;;;4.30;99.90;;;;;;4792250;29;20055;-78
2020/12/30 11:53:23;;;;;;;6.13;3.22;;;4.30;99.90;;;;;;4773450;29;20520;-79
2020/12/30 11:55:55;;;;;;;4.07;2.80;;;4.40;99.90;;;;;;4784782;29;20075;-80
2020/12/30 11:58:21;;;;;;;4.28;3.10;;;4.40;99.90;;;;;;4795253;29;20150;-79
2020/12/30 12:00:52;;;;;;;7.00;3.33;;;4.40;99.90;;;;;;4792718;29;20051;-78
2020/12/30 12:03:24;;;;;;;4.32;2.15;;;4.50;99.90;;;;;;4784101;29;20621;-78
2020/12/30 12:05:55;;;;;;;3.47;1.67;;;4.60;99.90;;;;;;4782676;30;20062;-78
2020/12/30 12:08:26;;;;;;;2.97;1.70;;;4.60;99.90;;;;;;4767742;30;20047;-78
2020/12/30 12:10:57;;;;;;;2.85;1.80;;;4.70;99.90;;;;;;4782576;30;20062;-78
2020/12/30 12:13:28;;;;;;;3.15;2.22;;;4.70;99.90;;;;;;4781889;29;20052;-78
2020/12/30 12:16:00;;;;;;;3.05;2.10;;;4.70;99.90;;;;;;4781914;29;20070;-78
2020/12/30 12:18:31;;;;;;;3.58;2.10;;;4.70;99.90;;;;;;4781731;30;20071;-78
2020/12/30 12:21:04;;;;;;;3.58;1.98;;;4.70;99.90;;;;;;4782542;29;20048;-78
2020/12/30 12:23:35;;;;;;;3.92;2.15;;;4.70;99.90;;;;;;4782582;29;20140;-78
2020/12/30 12:26:07;;;;;;;4.13;2.35;;;4.70;99.90;;;;;;4768633;30;20047;-78
2020/12/30 12:28:45;;;;;;;3.63;2.35;;;4.60;99.90;;;;;;4767602;30;20142;-78
2020/12/30 12:31:17;;;;;;;4.15;2.30;;;4.60;99.90;;;;;;4783471;30;20146;-78
2020/12/30 12:33:48;;;;;;;2.85;2.20;;;4.70;99.90;;;;;;4780631;30;20071;-79
2020/12/30 12:36:20;;;;;;;5.15;2.70;;;4.80;99.90;;;;;;4783719;29;20146;-79
2020/12/30 12:38:51;;;;;;;4.25;2.33;;;4.80;99.90;;;;;;4768992;29;20146;-78
2020/12/30 12:41:23;;;;;;;3.85;2.30;;;4.80;99.90;;;;;;4782693;29;20488;-80
2020/12/30 12:43:49;;;;;;;3.65;2.33;;;4.80;99.90;;;;;;4767673;29;20143;-79
2020/12/30 12:46:20;;;;;;;3.28;2.25;;;4.80;99.90;;;;;;4770128;30;20126;-79
2020/12/30 12:48:51;;;;;;;4.53;2.72;;;4.90;99.90;;;;;;4783692;29;20076;-79
2020/12/30 12:51:22;;;;;;;3.65;2.53;;;4.90;99.90;;;;;;4783672;30;20051;-80
2020/12/30 12:53:57;;;;;;;9.52;5.00;;;4.90;99.90;;;;;;4783559;30;20423;-80
2020/12/30 12:56:25;;;;;;;7.30;3.90;;;4.90;99.90;;;;;;4768888;30;20074;-79
2020/12/30 12:58:51;;;;;;;5.63;3.83;;;5.00;99.90;;;;;;4769029;30;20124;-79
2020/12/30 13:01:17;;;;;;;12.30;5.70;;;5.00;99.90;;;;;;4787694;29;20044;-80
2020/12/30 13:03:49;;;;;;;7.00;4.25;;;5.00;99.90;;;;;;4774472;29;20108;-80
2020/12/30 13:06:33;;;;;;;3.60;2.25;;;5.00;99.90;;;;;;4793920;29;20078;-79
2020/12/30 13:09:06;;;;;;;4.00;2.28;;;4.90;99.90;;;;;;4774117;29;20130;-79
2020/12/30 13:11:45;;;;;;;5.63;2.50;;;4.90;99.40;;;;;;4784222;29;20052;-79
2020/12/30 13:14:19;;;;;;;3.95;1.85;;;4.90;99.60;;;;;;4783387;29;20602;-79
2020/12/30 13:16:52;;;;;;;4.40;2.05;;;4.80;99.60;;;;;;4790810;29;20081;-79